createdAt,value
2017-11-15T00:01:48.345Z,16.45
2017-11-15T00:04:15.814Z,18.95
2017-11-15T00:06:43.363Z,16.98
2017-11-15T00:09:10.850Z,21.30
2017-11-15T00:11:39.111Z,23.67
2017-11-15T00:14:06.580Z,18.05
2017-11-15T00:16:34.799Z,19.42
2017-11-15T00:19:02.263Z,22.90
2017-11-15T00:21:29.739Z,31.77
2017-11-15T00:23:57.358Z,20.27
2017-11-15T00:26:24.818Z,16.75
2017-11-15T00:28:52.293Z,19.67
2017-11-15T00:31:19.744Z,18.00
2017-11-15T00:33:47.222Z,16.90
2017-11-15T00:36:14.698Z,24.42
2017-11-15T00:38:42.172Z,25.27
2017-11-15T00:41:09.705Z,22.42
2017-11-15T00:43:37.149Z,24.17
2017-11-15T00:46:04.706Z,19.75
2017-11-15T00:48:32.193Z,19.92
2017-11-15T00:51:00.437Z,28.25
2017-11-15T00:53:27.881Z,24.17
2017-11-15T00:55:55.367Z,24.50
2017-11-15T00:58:22.843Z,18.95
2017-11-15T01:00:51.150Z,22.00
2017-11-15T01:03:18.609Z,21.55
2017-11-15T01:05:46.115Z,20.58
2017-11-15T01:08:13.601Z,22.90
2017-11-15T01:10:41.082Z,33.90
2017-11-15T01:13:08.585Z,20.40
2017-11-15T01:15:36.041Z,25.55
2017-11-15T01:18:04.313Z,19.90
2017-11-15T01:20:31.768Z,33.35
2017-11-15T01:22:59.229Z,22.52
2017-11-15T01:25:26.788Z,24.10
2017-11-15T01:27:54.262Z,18.30
2017-11-15T01:30:22.500Z,20.90
2017-11-15T01:32:49.969Z,16.83
2017-11-15T01:35:17.527Z,21.02
2017-11-15T01:37:45.046Z,30.27
2017-11-15T01:40:12.570Z,24.35
2017-11-15T01:42:40.811Z,27.70
2017-11-15T01:45:08.267Z,20.60
2017-11-15T01:47:35.735Z,14.73
2017-11-15T01:50:03.194Z,20.52
2017-11-15T01:52:30.758Z,22.92
2017-11-15T01:54:58.226Z,28.35
2017-11-15T01:57:26.478Z,22.25
2017-11-15T01:59:53.933Z,28.95
2017-11-15T02:02:22.164Z,27.52
2017-11-15T02:04:49.679Z,27.33
2017-11-15T02:07:17.136Z,34.20
2017-11-15T02:09:44.706Z,23.95
2017-11-15T02:12:13.020Z,31.58
2017-11-15T02:14:40.866Z,20.77
2017-11-15T02:17:08.476Z,21.08
2017-11-15T02:19:36.068Z,30.58
2017-11-15T02:22:04.430Z,21.48
2017-11-15T02:24:31.885Z,28.20
2017-11-15T02:27:00.877Z,28.20
2017-11-15T02:29:28.446Z,25.48
2017-11-15T02:31:56.768Z,25.37
2017-11-15T02:34:24.235Z,23.50
2017-11-15T02:36:51.708Z,32.88
2017-11-15T02:39:19.204Z,29.25
2017-11-15T02:41:46.662Z,25.40
2017-11-15T02:44:14.910Z,30.67
2017-11-15T02:46:42.478Z,26.20
2017-11-15T02:49:09.934Z,25.02
2017-11-15T02:51:37.427Z,21.10
2017-11-15T02:54:04.894Z,23.35
2017-11-15T02:56:32.353Z,26.02
2017-11-15T02:58:59.858Z,27.20
2017-11-15T03:01:28.132Z,24.85
2017-11-15T03:03:56.362Z,35.95
2017-11-15T03:06:23.817Z,22.05
2017-11-15T03:08:51.289Z,27.40
2017-11-15T03:11:18.776Z,22.85
2017-11-15T03:13:46.251Z,24.20
2017-11-15T03:16:14.477Z,32.20
2017-11-15T03:18:41.949Z,23.62
2017-11-15T03:21:15.479Z,26.73
2017-11-15T03:23:43.737Z,25.25
2017-11-15T03:26:11.205Z,23.98
2017-11-15T03:28:38.756Z,24.17
2017-11-15T03:31:06.230Z,27.33
2017-11-15T03:33:34.457Z,25.30
2017-11-15T03:36:01.968Z,28.15
2017-11-15T03:38:30.225Z,28.75
2017-11-15T03:40:57.695Z,27.85
2017-11-15T03:43:26.010Z,29.23
2017-11-15T03:45:53.512Z,32.30
2017-11-15T03:48:21.814Z,24.60
2017-11-15T03:50:50.054Z,33.90
2017-11-15T03:53:17.520Z,26.65
2017-11-15T03:55:45.760Z,29.73
2017-11-15T03:58:13.252Z,23.35
2017-11-15T04:00:40.718Z,28.35
2017-11-15T04:03:08.177Z,27.92
2017-11-15T04:05:35.783Z,26.73
2017-11-15T04:08:03.267Z,27.42
2017-11-15T04:10:30.731Z,26.55
2017-11-15T04:12:58.207Z,28.90
2017-11-15T04:15:25.671Z,23.87
2017-11-15T04:17:53.901Z,22.35
2017-11-15T04:20:21.393Z,34.58
2017-11-15T04:22:49.638Z,24.27
2017-11-15T04:25:17.109Z,29.20
2017-11-15T04:27:44.580Z,25.55
2017-11-15T04:30:12.819Z,26.08
2017-11-15T04:32:40.281Z,28.83
2017-11-15T04:35:07.738Z,32.33
2017-11-15T04:37:35.223Z,32.90
2017-11-15T04:40:02.694Z,23.25
2017-11-15T04:42:30.937Z,28.15
2017-11-15T04:44:58.411Z,27.45
2017-11-15T04:47:25.871Z,29.45
2017-11-15T04:49:53.346Z,29.33
2017-11-15T04:52:21.582Z,29.92
2017-11-15T04:54:49.051Z,28.52
2017-11-15T04:57:16.599Z,27.42
2017-11-15T04:59:44.072Z,26.40
2017-11-15T05:02:11.627Z,29.23
2017-11-15T05:04:39.093Z,24.33
2017-11-15T05:07:07.354Z,27.30
2017-11-15T05:09:34.915Z,27.23
2017-11-15T05:12:02.386Z,23.85
2017-11-15T05:14:29.851Z,25.17
2017-11-15T05:16:58.078Z,32.92
2017-11-15T05:19:25.562Z,22.33
2017-11-15T05:21:53.795Z,27.30
2017-11-15T05:24:21.288Z,24.95
2017-11-15T05:26:48.755Z,25.98
2017-11-15T05:29:16.236Z,29.73
2017-11-15T05:31:44.477Z,31.37
2017-11-15T05:34:11.947Z,28.90
2017-11-15T05:36:40.921Z,23.20
2017-11-15T05:39:08.382Z,28.12
2017-11-15T05:41:36.002Z,25.25
2017-11-15T05:44:03.479Z,27.00
2017-11-15T05:46:30.941Z,29.12
2017-11-15T05:48:58.409Z,29.02
2017-11-15T05:51:25.929Z,27.25
2017-11-15T05:53:53.391Z,31.12
2017-11-15T05:56:20.887Z,29.25
2017-11-15T05:58:48.351Z,28.58
2017-11-15T06:01:15.810Z,28.65
2017-11-15T06:03:44.058Z,23.20
2017-11-15T06:06:11.525Z,21.80
2017-11-15T06:08:39.016Z,26.30
2017-11-15T06:11:07.398Z,25.42
2017-11-15T06:13:35.534Z,32.75
2017-11-15T06:16:07.931Z,29.02
2017-11-15T06:18:35.477Z,26.92
2017-11-15T06:21:03.162Z,27.20
2017-11-15T06:23:30.620Z,27.90
2017-11-15T06:25:58.157Z,28.25
2017-11-15T06:28:25.606Z,32.15
2017-11-15T06:30:53.271Z,30.60
2017-11-15T06:33:20.847Z,37.20
2017-11-15T06:35:49.018Z,30.85
2017-11-15T06:38:16.512Z,38.88
2017-11-15T06:40:44.071Z,27.60
2017-11-15T06:43:11.532Z,28.90
2017-11-15T06:45:38.997Z,28.33
2017-11-15T06:48:06.454Z,31.30
2017-11-15T06:50:33.926Z,26.30
2017-11-15T06:53:01.385Z,34.03
2017-11-15T06:55:28.966Z,30.75
2017-11-15T06:57:56.448Z,28.65
2017-11-15T07:00:23.925Z,28.70
2017-11-15T07:02:51.396Z,30.42
2017-11-15T07:05:18.888Z,32.30
2017-11-15T07:07:46.346Z,36.00
2017-11-15T07:10:13.820Z,32.58
2017-11-15T07:12:42.045Z,34.25
2017-11-15T07:15:09.535Z,33.58
2017-11-15T07:17:37.008Z,29.10
2017-11-15T07:20:05.273Z,34.10
2017-11-15T07:22:32.750Z,34.03
2017-11-15T07:25:01.125Z,31.45
2017-11-15T07:27:29.347Z,33.38
2017-11-15T07:29:56.846Z,30.33
2017-11-15T07:32:25.113Z,32.58
2017-11-15T07:34:52.572Z,26.45
2017-11-15T07:37:20.035Z,30.25
2017-11-15T07:39:48.260Z,32.25
2017-11-15T07:42:15.723Z,24.50
2017-11-15T07:44:43.187Z,29.40
2017-11-15T07:47:10.667Z,35.42
2017-11-15T07:49:38.127Z,29.00
2017-11-15T07:52:05.605Z,33.00
2017-11-15T07:54:33.836Z,34.50
2017-11-15T07:57:01.435Z,26.33
2017-11-15T07:59:29.795Z,35.17
2017-11-15T08:01:57.271Z,32.63
2017-11-15T08:04:25.499Z,27.42
2017-11-15T08:06:52.983Z,26.92
2017-11-15T08:09:20.451Z,41.45
2017-11-15T08:11:47.921Z,28.35
2017-11-15T08:14:16.150Z,35.38
2017-11-15T08:16:43.602Z,31.98
2017-11-15T08:19:11.177Z,29.30
2017-11-15T08:21:38.658Z,32.92
2017-11-15T08:24:06.916Z,25.90
2017-11-15T08:26:34.388Z,25.75
2017-11-15T08:29:02.651Z,32.08
2017-11-15T08:31:30.115Z,27.98
2017-11-15T08:33:58.367Z,27.35
2017-11-15T08:36:25.943Z,29.85
2017-11-15T08:38:53.498Z,31.05
2017-11-15T08:41:21.053Z,27.95
2017-11-15T08:43:48.547Z,25.50
2017-11-15T08:46:16.079Z,25.48
2017-11-15T08:48:43.544Z,27.75
2017-11-15T08:51:11.789Z,29.98
2017-11-15T08:53:39.247Z,21.40
2017-11-15T08:56:06.834Z,23.62
2017-11-15T08:58:35.149Z,18.75
2017-11-15T09:01:02.628Z,29.98
2017-11-15T09:03:30.099Z,20.25
2017-11-15T09:05:57.679Z,26.80
2017-11-15T09:08:25.158Z,22.50
2017-11-15T09:10:53.391Z,24.92
2017-11-15T09:13:20.890Z,21.25
2017-11-15T09:15:48.355Z,20.33
2017-11-15T09:18:15.870Z,18.33
2017-11-15T09:20:43.343Z,23.20
2017-11-15T09:23:10.887Z,20.42
2017-11-15T09:25:38.342Z,22.85
2017-11-15T09:28:05.815Z,24.00
2017-11-15T09:30:34.051Z,23.33
2017-11-15T09:33:01.538Z,25.73
2017-11-15T09:35:29.005Z,23.80
2017-11-15T09:37:57.242Z,28.40
2017-11-15T09:40:24.714Z,28.30
2017-11-15T09:42:52.231Z,26.10
2017-11-15T09:45:19.693Z,21.60
2017-11-15T09:47:47.156Z,32.15
2017-11-15T09:50:14.630Z,23.15
2017-11-15T09:52:42.207Z,21.10
2017-11-15T09:55:09.665Z,28.85
2017-11-15T09:57:37.158Z,26.23
2017-11-15T10:00:04.695Z,30.52
2017-11-15T10:02:32.928Z,27.30
2017-11-15T10:05:00.394Z,30.12
2017-11-15T10:07:27.883Z,24.48
2017-11-15T10:09:55.355Z,24.70
2017-11-15T10:12:23.585Z,23.38
2017-11-15T10:14:51.058Z,20.08
2017-11-15T10:17:18.522Z,22.00
2017-11-15T10:19:45.998Z,22.92
2017-11-15T10:22:14.235Z,34.72
2017-11-15T10:24:41.802Z,24.42
2017-11-15T10:27:09.363Z,23.87
2017-11-15T10:29:37.285Z,22.67
2017-11-15T10:32:04.858Z,20.80
2017-11-15T10:34:32.345Z,20.55
2017-11-15T10:36:59.836Z,27.77
2017-11-15T10:39:27.407Z,25.02
2017-11-15T10:41:54.933Z,27.37
2017-11-15T10:44:23.200Z,29.20
2017-11-15T10:46:50.791Z,31.35
2017-11-15T10:49:18.324Z,33.85
2017-11-15T10:51:45.876Z,24.15
2017-11-15T10:54:13.423Z,25.55
2017-11-15T10:56:40.910Z,27.73
2017-11-15T10:59:09.152Z,27.62
2017-11-15T11:01:37.419Z,32.78
2017-11-15T11:04:04.887Z,22.23
2017-11-15T11:06:32.441Z,20.77
2017-11-15T11:08:59.919Z,24.00
2017-11-15T11:11:27.462Z,23.10
2017-11-15T11:13:54.979Z,24.65
2017-11-15T11:16:22.510Z,21.12
2017-11-15T11:18:50.798Z,23.50
2017-11-15T11:21:18.290Z,22.45
2017-11-15T11:23:45.776Z,23.00
2017-11-15T11:26:13.339Z,28.55
2017-11-15T11:28:40.899Z,30.40
2017-11-15T11:31:09.208Z,27.92
2017-11-15T11:33:36.709Z,24.40
2017-11-15T11:36:04.977Z,27.10
2017-11-15T11:38:32.526Z,23.67
2017-11-15T11:41:00.588Z,18.60
2017-11-15T11:43:28.486Z,23.45
2017-11-15T11:45:55.950Z,27.83
2017-11-15T11:48:23.472Z,23.17
2017-11-15T11:50:50.930Z,17.25
2017-11-15T11:53:18.483Z,25.20
2017-11-15T11:55:45.954Z,24.73
2017-11-15T11:58:13.427Z,20.48
2017-11-15T12:00:40.895Z,17.30
2017-11-15T12:03:08.415Z,18.75
2017-11-15T12:05:35.970Z,17.17
2017-11-15T12:08:03.432Z,20.37
2017-11-15T12:10:30.900Z,17.45
2017-11-15T12:12:58.359Z,16.20
2017-11-15T12:15:25.822Z,21.10
2017-11-15T12:17:53.296Z,16.20
2017-11-15T12:20:20.788Z,24.27
2017-11-15T12:22:48.244Z,17.52
2017-11-15T12:25:15.712Z,19.85
2017-11-15T12:27:43.173Z,14.10
2017-11-15T12:30:10.782Z,17.75
2017-11-15T12:32:39.749Z,15.43
2017-11-15T12:35:07.291Z,18.48
2017-11-15T12:37:34.803Z,24.08
2017-11-15T12:40:02.302Z,18.48
2017-11-15T12:42:29.815Z,14.50
2017-11-15T12:44:58.056Z,14.00
2017-11-15T12:47:25.531Z,16.30
2017-11-15T12:49:52.994Z,19.42
2017-11-15T12:52:20.488Z,15.27
2017-11-15T12:54:47.954Z,15.85
2017-11-15T12:57:15.461Z,16.30
2017-11-15T12:59:43.031Z,19.48
2017-11-15T13:02:10.496Z,20.37
2017-11-15T13:04:37.958Z,16.27
2017-11-15T13:07:06.200Z,22.62
2017-11-15T13:09:33.663Z,18.20
2017-11-15T13:12:01.130Z,17.55
2017-11-15T13:14:28.640Z,18.02
2017-11-15T13:16:56.111Z,17.15
2017-11-15T13:19:23.598Z,17.65
2017-11-15T13:21:51.154Z,14.23
2017-11-15T13:24:18.615Z,15.27
2017-11-15T13:26:46.083Z,13.13
2017-11-15T13:29:13.547Z,13.77
2017-11-15T13:31:41.779Z,13.15
2017-11-15T13:34:09.317Z,13.35
2017-11-15T13:36:36.934Z,15.25
2017-11-15T13:39:05.181Z,15.23
2017-11-15T13:41:32.652Z,19.08
2017-11-15T13:44:00.224Z,14.30
2017-11-15T13:46:28.459Z,17.45
2017-11-15T13:48:55.969Z,18.48
2017-11-15T13:51:24.203Z,14.57
2017-11-15T13:53:51.742Z,16.25
2017-11-15T13:56:19.248Z,15.07
2017-11-15T13:58:46.759Z,17.58
2017-11-15T14:01:14.236Z,14.60
2017-11-15T14:03:41.707Z,15.57
2017-11-15T14:06:09.175Z,16.60
2017-11-15T14:08:36.721Z,15.73
2017-11-15T14:11:04.179Z,16.87
2017-11-15T14:13:31.684Z,17.37
2017-11-15T14:15:59.164Z,16.65
2017-11-15T14:18:26.650Z,13.55
2017-11-15T14:20:54.130Z,15.10
2017-11-15T14:23:22.358Z,16.27
2017-11-15T14:25:49.830Z,10.85
2017-11-15T14:28:17.298Z,15.75
2017-11-15T14:30:44.765Z,17.30
2017-11-15T14:33:12.229Z,15.98
2017-11-15T14:35:40.462Z,15.40
2017-11-15T14:38:08.043Z,12.65
2017-11-15T14:40:35.522Z,19.25
2017-11-15T14:43:03.773Z,17.12
2017-11-15T14:45:31.276Z,14.60
2017-11-15T14:47:58.823Z,13.80
2017-11-15T14:50:27.052Z,20.70
2017-11-15T14:52:54.627Z,19.23
2017-11-15T14:55:22.186Z,14.02
2017-11-15T14:57:49.675Z,12.30
2017-11-15T15:00:17.153Z,16.08
2017-11-15T15:02:44.663Z,14.05
2017-11-15T15:05:12.938Z,15.00
2017-11-15T15:07:40.509Z,11.77
2017-11-15T15:10:08.750Z,22.37
2017-11-15T15:12:36.327Z,20.17
2017-11-15T15:15:03.794Z,15.70
2017-11-15T15:17:31.347Z,16.37
2017-11-15T15:19:58.802Z,15.18
2017-11-15T15:22:26.275Z,12.23
2017-11-15T15:24:54.617Z,15.52
2017-11-15T15:27:22.202Z,18.40
2017-11-15T15:29:49.767Z,14.80
2017-11-15T15:32:18.078Z,17.52
2017-11-15T15:34:45.969Z,15.07
2017-11-15T15:37:13.545Z,20.30
2017-11-15T15:39:41.337Z,15.57
2017-11-15T15:42:09.798Z,19.45
2017-11-15T15:44:37.665Z,17.73
2017-11-15T15:47:05.261Z,19.58
2017-11-15T15:49:32.834Z,22.45
2017-11-15T15:52:00.390Z,14.82
2017-11-15T15:54:28.790Z,15.23
2017-11-15T15:56:56.761Z,16.37
2017-11-15T15:59:24.385Z,16.33
2017-11-15T16:01:51.907Z,18.17
2017-11-15T16:04:19.387Z,18.60
2017-11-15T16:06:47.626Z,15.30
2017-11-15T16:09:15.127Z,11.93
2017-11-15T16:11:42.664Z,18.37
2017-11-15T16:14:10.243Z,18.02
2017-11-15T16:16:38.504Z,13.88
2017-11-15T16:19:06.820Z,27.55
2017-11-15T16:21:34.405Z,17.98
2017-11-15T16:24:02.025Z,15.15
2017-11-15T16:26:29.608Z,15.82
2017-11-15T16:28:57.138Z,15.15
2017-11-15T16:31:24.654Z,25.55
2017-11-15T16:33:52.133Z,18.77
2017-11-15T16:36:20.425Z,17.83
2017-11-15T16:38:48.685Z,21.00
2017-11-15T16:41:16.977Z,15.57
2017-11-15T16:43:45.196Z,17.25
2017-11-15T16:46:12.665Z,13.73
2017-11-15T16:48:40.142Z,18.33
2017-11-15T16:51:08.372Z,19.75
2017-11-15T16:53:35.862Z,24.23
2017-11-15T16:56:03.337Z,14.90
2017-11-15T16:58:31.595Z,23.40
2017-11-15T17:00:59.159Z,19.10
2017-11-15T17:03:26.644Z,16.58
2017-11-15T17:05:57.131Z,19.45
2017-11-15T17:08:24.603Z,23.70
2017-11-15T17:10:52.079Z,24.37
2017-11-15T17:13:20.316Z,20.45
2017-11-15T17:15:47.794Z,28.98
2017-11-15T17:18:15.342Z,21.87
2017-11-15T17:20:42.935Z,26.45
2017-11-15T17:23:11.176Z,26.37
2017-11-15T17:25:38.641Z,22.98
2017-11-15T17:28:06.122Z,22.17
2017-11-15T17:30:34.367Z,23.25
2017-11-15T17:33:01.872Z,21.85
2017-11-15T17:35:29.347Z,20.15
2017-11-15T17:37:56.828Z,26.83
2017-11-15T17:40:24.287Z,24.60
2017-11-15T17:42:51.862Z,21.87
2017-11-15T17:45:19.422Z,21.55
2017-11-15T17:47:46.909Z,22.42
2017-11-15T17:50:14.371Z,24.60
2017-11-15T17:52:41.886Z,18.40
2017-11-15T17:55:09.370Z,23.38
2017-11-15T17:57:37.610Z,21.60
2017-11-15T18:00:05.084Z,20.90
2017-11-15T18:02:32.634Z,26.12
2017-11-15T18:05:00.111Z,27.05
2017-11-15T18:07:28.353Z,22.15
2017-11-15T18:09:55.828Z,24.60
2017-11-15T18:12:23.286Z,28.95
2017-11-15T18:14:50.763Z,27.48
2017-11-15T18:17:19.006Z,24.80
2017-11-15T18:19:46.474Z,26.33
2017-11-15T18:22:14.027Z,21.50
2017-11-15T18:24:42.286Z,23.38
2017-11-15T18:27:09.866Z,22.37
2017-11-15T18:29:37.413Z,21.45
2017-11-15T18:32:04.907Z,24.27
2017-11-15T18:34:33.141Z,23.38
2017-11-15T18:37:00.621Z,23.83
2017-11-15T18:39:28.882Z,23.70
2017-11-15T18:41:56.402Z,22.05
2017-11-15T18:44:23.910Z,26.83
2017-11-15T18:46:52.183Z,27.17
2017-11-15T18:49:19.736Z,29.90
2017-11-15T18:51:47.243Z,23.00
2017-11-15T18:54:14.721Z,21.77
2017-11-15T18:56:42.194Z,25.52
2017-11-15T18:59:09.666Z,25.88
2017-11-15T19:01:37.197Z,30.30
2017-11-15T19:04:04.661Z,26.10
2017-11-15T19:06:32.126Z,34.47
2017-11-15T19:08:59.671Z,24.52
2017-11-15T19:11:27.292Z,27.50
2017-11-15T19:13:54.810Z,32.05
2017-11-15T19:16:22.366Z,25.80
2017-11-15T19:18:49.917Z,27.40
2017-11-15T19:21:17.380Z,30.40
2017-11-15T19:23:44.867Z,25.08
2017-11-15T19:26:13.109Z,24.75
2017-11-15T19:28:40.576Z,23.05
2017-11-15T19:31:08.124Z,29.15
2017-11-15T19:33:35.612Z,32.47
2017-11-15T19:36:03.871Z,30.15
2017-11-15T19:38:31.338Z,28.55
2017-11-15T19:40:59.570Z,32.95
2017-11-15T19:43:27.054Z,31.20
2017-11-15T19:45:54.627Z,27.13
2017-11-15T19:48:22.852Z,33.60
2017-11-15T19:50:50.339Z,31.65
2017-11-15T19:53:17.814Z,26.75
2017-11-15T19:55:46.049Z,32.13
2017-11-15T19:58:13.586Z,29.00
2017-11-15T20:00:41.051Z,31.12
2017-11-15T20:03:08.510Z,33.35
2017-11-15T20:05:35.990Z,29.10
2017-11-15T20:08:03.456Z,27.42
2017-11-15T20:10:30.935Z,27.85
2017-11-15T20:12:59.178Z,32.55
2017-11-15T20:15:26.686Z,33.65
2017-11-15T20:17:54.204Z,31.42
2017-11-15T20:20:22.434Z,33.67
2017-11-15T20:22:49.947Z,28.92
2017-11-15T20:25:17.410Z,31.30
2017-11-15T20:27:45.655Z,31.85
2017-11-15T20:30:13.561Z,35.65
2017-11-15T20:32:41.355Z,31.95
2017-11-15T20:35:08.826Z,31.98
2017-11-15T20:37:36.293Z,37.03
2017-11-15T20:40:03.973Z,39.05
2017-11-15T20:42:32.255Z,34.42
2017-11-15T20:44:59.723Z,31.02
2017-11-15T20:47:27.970Z,34.45
2017-11-15T20:49:55.598Z,34.88
2017-11-15T20:52:23.209Z,31.30
2017-11-15T20:54:50.909Z,37.00
2017-11-15T20:57:18.402Z,38.92
2017-11-15T20:59:45.945Z,35.03
2017-11-15T21:02:13.528Z,36.90
2017-11-15T21:04:41.840Z,30.90
2017-11-15T21:07:10.079Z,38.55
2017-11-15T21:09:37.610Z,35.35
2017-11-15T21:12:05.473Z,36.00
2017-11-15T21:14:33.005Z,33.80
2017-11-15T21:17:00.693Z,31.30
2017-11-15T21:19:29.152Z,34.53
2017-11-15T21:21:56.612Z,37.13
2017-11-15T21:24:24.100Z,32.13
2017-11-15T21:26:51.748Z,35.22
2017-11-15T21:29:19.254Z,34.40
2017-11-15T21:31:46.714Z,39.15
2017-11-15T21:34:14.974Z,39.95
2017-11-15T21:36:42.458Z,36.95
2017-11-15T21:39:10.698Z,43.70
2017-11-15T21:41:38.180Z,47.17
2017-11-15T21:44:06.492Z,39.50
2017-11-15T21:46:33.966Z,47.10
2017-11-15T21:49:01.434Z,45.60
2017-11-15T21:51:28.905Z,45.53
2017-11-15T21:53:56.478Z,56.92
2017-11-15T21:56:23.945Z,50.63
2017-11-15T21:58:52.179Z,49.38
2017-11-15T22:01:19.660Z,49.25
2017-11-15T22:03:47.227Z,47.85
2017-11-15T22:06:14.735Z,40.85
2017-11-15T22:08:42.219Z,47.65
2017-11-15T22:11:09.698Z,48.00
2017-11-15T22:13:37.170Z,49.13
2017-11-15T22:16:05.426Z,38.15
2017-11-15T22:18:32.898Z,51.17
2017-11-15T22:21:01.148Z,49.70
2017-11-15T22:23:28.699Z,59.40
2017-11-15T22:25:56.187Z,49.50
2017-11-15T22:28:24.458Z,51.97
2017-11-15T22:30:52.700Z,55.08
2017-11-15T22:33:20.203Z,38.70
2017-11-15T22:35:48.453Z,49.72
2017-11-15T22:38:15.929Z,60.55
2017-11-15T22:40:44.191Z,49.78
2017-11-15T22:43:11.661Z,52.75
2017-11-15T22:45:39.993Z,40.00
2017-11-15T22:48:07.463Z,49.03
2017-11-15T22:50:35.051Z,46.65
2017-11-15T22:53:03.321Z,46.67
2017-11-15T22:55:30.880Z,53.20
2017-11-15T22:57:59.165Z,47.70
2017-11-15T23:00:27.439Z,43.45
2017-11-15T23:02:55.691Z,38.42
2017-11-15T23:05:23.173Z,45.05
2017-11-15T23:07:50.718Z,34.30
2017-11-15T23:10:18.197Z,45.47
2017-11-15T23:12:46.448Z,43.83
2017-11-15T23:15:13.923Z,43.87
2017-11-15T23:17:42.165Z,50.70
2017-11-15T23:20:09.650Z,51.28
2017-11-15T23:22:37.901Z,50.10
2017-11-15T23:25:05.372Z,46.20
2017-11-15T23:27:32.834Z,54.42
2017-11-15T23:30:00.302Z,43.08
2017-11-15T23:32:28.563Z,53.08
2017-11-15T23:34:56.117Z,44.00
2017-11-15T23:37:23.682Z,43.80
2017-11-15T23:39:51.238Z,50.03
2017-11-15T23:42:18.706Z,49.42
2017-11-15T23:44:47.070Z,47.67
2017-11-15T23:47:14.621Z,42.38
2017-11-15T23:49:42.111Z,54.13
2017-11-15T23:52:10.353Z,49.67
2017-11-15T23:54:37.918Z,54.47
2017-11-15T23:57:05.398Z,49.40
2017-11-15T23:59:33.649Z,58.05
